Welcome!

Visit our other weather sites:

Template documentation
and downloads

And another site



There are no active watches, warnings or advisories

Nearby METAR Reports

   
KAVP - Albrightsville, PA
Updated: Jul 11 2020 10:54 am
Partly Cloudy  
Partly Cloudy  
   Wind: WSW 13.8 mph
Wind: WSW 13.8 mph
Temperature: 82.4°F
Heat Index: 86°F
Dew Point: 69.8°F
Humidity: 66%
Barometer: 29.71 inHg
Clouds: Partly Cloudy
Visibility: 10 mi
Cloud details: Few Clouds 884 m,
Partly Cloudy 3658 m
KAVP 111554Z 25012KT 10SM FEW029 SCT120 28/21 A2971 RMK AO2 SLP049 T02830206
KIWA - Apache Junction, AZ
Updated: Jul 11 2020 9:50 am
NOT Current
Few Clouds  
Few Clouds  
   Wind: varies 4.6 mph
Wind: varies 4.6 mph
Temperature: 95°F
Dew Point: 55.4°F
Humidity: 26%
Barometer: 29.97 inHg
Clouds: Few Clouds
Visibility: 10 mi
Cloud details: Few Clouds 7620 m
KIWA 111450Z VRB04KT 10SM FEW250 35/13 A2997
KPKB - Blue Rock, OH
Updated: Jul 11 2020 10:53 am
Clear  
Clear  
   Wind: West 15 mph<br />Gust to 15 mph
Wind: West 15 mph
Gust to 15 mph
Temperature: 80.6°F
Heat Index: 80.6°F
Dew Point: 57.2°F
Humidity: 45%
Barometer: 29.88 inHg
Clouds: Clear
Visibility: 10 mi
Cloud details: Clear
KPKB 111553Z 28013G19KT 10SM CLR 27/14 A2988 RMK AO2 SLP108 T02670144
KHVN - Branford, CT
Updated: Jul 11 2020 11:17 am
Mostly Cloudy  
Mostly Cloudy  
   Wind: SE 8.1 mph
Wind: SE 8.1 mph
Temperature: 82.4°F
Heat Index: 89.6°F
Dew Point: 75.2°F
Humidity: 79%
Barometer: 29.74 inHg
Clouds: Mostly Cloudy
Visibility: 9 mi
Cloud details: Mostly Cloudy 335 m
KHVN 111617Z 14007KT 9SM BKN011 28/24 A2974 RMK AO2 T02780239
KPHX - Carefree, AZ
Updated: Jul 11 2020 10:51 am
Mostly Cloudy  
Mostly Cloudy  
   Wind: WNW 8.1 mph
Wind: WNW 8.1 mph
Temperature: 96.8°F
Dew Point: 55.4°F
Humidity: 25%
Barometer: 29.93 inHg
Clouds: Mostly Cloudy
Visibility: 10 mi
Cloud details: Partly Cloudy 4877 m,
Partly Cloudy 5486 m,
Mostly Cloudy 7620 m
KPHX 111551Z 29007KT 10SM SCT160 SCT180 BKN250 36/13 A2993 RMK AO2 SLP111 T03560133
 

Script developed by  Saratoga-weather.org Adapted for the template by  Weerstation Leuven